METAR AND TAF INFORMATION
METAR FOR LTBA
ADDS - METARS form results

(0413 UTC 26 August 2019)
Data provider http://aviationweather.gov/metar/data/
 
METAR text: LTBA 260350Z 02012KT 9999 FEW013 25/23 Q1016 NOSIG RMK RWY17L 03010KT 350V050 RWY05 01010KT RWY23 04010KT
Conditions at: LTBA (ISTANBUL/ATATURK, TR) observed 0350 UTC 26 August 2019
Temperature: 25.0°C (77°F)
Dewpoint: 23.0°C (73°F) [RH = 89%]
Pressure (altimeter): 30.00 inches Hg (1016.0 mb)
Winds: from the NNE (20 degrees) at 14 MPH (12 knots; 6.2 m/s)
Visibility: 6 or more miles (10+ km)
Ceiling: at least 12,000 feet AGL
Clouds: few clouds at 1300 feet AGL
Weather: no significant weather observed at this time

METAR text: LTBA 260320Z 03011KT 9999 FEW013 25/23 Q1015 NOSIG RMK RWY17L 03009KT 360V060 RWY05 02009KT RWY23 04010KT
Conditions at: LTBA (ISTANBUL/ATATURK, TR) observed 0320 UTC 26 August 2019
Temperature: 25.0°C (77°F)
Dewpoint: 23.0°C (73°F) [RH = 89%]
Pressure (altimeter): 29.97 inches Hg (1015.0 mb)
Winds: from the NNE (30 degrees) at 13 MPH (11 knots; 5.7 m/s)
Visibility: 6 or more miles (10+ km)
Ceiling: at least 12,000 feet AGL
Clouds: few clouds at 1300 feet AGL
Weather: no significant weather observed at this time

Forecast for: LTBA (ISTANBUL/ATATURK, TR)
Text: TAF LTBA 252240Z 2600/2706 03012KT 9999 SCT025
Forecast period: 0000 to 0700 UTC 26 August 2019
Forecast type: FROM: standard forecast or significant change
Winds: from the NNE (30 degrees) at 14 MPH (12 knots; 6.2 m/s)
Visibility: 6 or more miles 10+ km)
Ceiling: at least 12,000 feet AGL
Clouds: scattered clouds at 2500 feet AGL
Weather: no significant weather forecast for this period
Text: BECMG 2607/2610 04020G30KT CAVOK
Forecast period: 0700 to 1500 UTC 26 August 2019
Forecast type: BECOMING: Conditions expected to become as follows by 1000 UTC 26 August 2019
Winds: from the NE (40 degrees) at 23 MPH (20 knots; 10.3 m/s)
gusting to 34 MPH (30 knots; 15.4 m/s)
Visibility: 6 or more miles 10+ km)
Ceiling: unknown
Clouds: missing
Weather: NSW  (no significant weather)
Text: BECMG 2615/2618 03010KT SCT025
Forecast period: 1500 UTC 26 August 2019 to 0600 UTC 27 August 2019
Forecast type: BECOMING: Conditions expected to become as follows by 1800 UTC 26 August 2019
Winds: from the NNE (30 degrees) at 12 MPH (10 knots; 5.1 m/s)
Visibility: 6 or more miles 10+ km)
Ceiling: at least 12,000 feet AGL
Clouds: scattered clouds at 2500 feet AGL
Weather: NSW  (no significant weather)

 AIRPORT MAP

 RUNWAY INFORMATION

 AIRPORT FREQUENCIES
Type APP Name YESILKOY A Frequency 120.5 MHZ
Type ATIS Name ATIS Frequency 128.2 MHZ
Type CLD Name YESILKOY D Frequency 121.7 MHZ
Type GND Name YESILKOY G Frequency 121.8 MHZ
Type RMP Name YESILKOY R Frequency 121.9 MHZ
Type TWR Name YESILKOY T Frequency 118.1 MHZ

 AIRPORT NEAR NAVIGATION AIDS
Type VORTAC Name Istanbul Frequency 112500 KHZ



2018 Air Astana Virtual Airline